Time;durP1;ratioP1;P1;durP2;ratioP2;P2;SDS_P1;SDS_P2;PMS_P1;PMS_P2;Temp;Humidity;BMP_temperature;BMP_pressure;BME280_temperature;BME280_humidity;BME280_pressure;Samples;Min_cycle;Max_cycle;Signal;HPM_P1;HPM_P2
2022/01/27 00:05:34;;;;;;;;;;;1.40;99.90;;;;;;5094959;28;20381;-45
2022/01/27 00:10:58;;;;;;;;;;;1.50;99.90;;;;;;5094790;28;19950;-43
2022/01/27 00:13:29;;;;;;;;;;;1.60;99.90;;;;;;5094751;28;19958;-43
2022/01/27 00:16:10;;;;;;;;;;;1.60;99.90;;;;;;5094519;28;19999;-43
2022/01/27 00:18:35;;;;;;;;;;;1.60;99.90;;;;;;5094562;28;19904;-43
2022/01/27 00:21:01;;;;;;;;;;;1.60;99.90;;;;;;5094305;28;19994;-44
2022/01/27 00:23:26;;;;;;;;;;;1.70;99.90;;;;;;5093985;28;19905;-44
2022/01/27 00:25:52;;;;;;;;;;;1.70;99.90;;;;;;5093948;28;20117;-43
2022/01/27 00:28:18;;;;;;;;;;;1.70;99.90;;;;;;5094480;28;19947;-43
2022/01/27 00:30:43;;;;;;;;;;;1.50;99.90;;;;;;5094453;28;19961;-43
2022/01/27 00:33:09;;;;;;;;;;;1.20;99.90;;;;;;5094427;28;20258;-44
2022/01/27 00:35:35;;;;;;;;;;;1.30;99.90;;;;;;5094344;28;20361;-44
2022/01/27 00:38:01;;;;;;;;;;;1.30;99.90;;;;;;5094047;28;19911;-44
2022/01/27 00:40:27;;;;;;;;;;;1.30;99.90;;;;;;5094040;28;20456;-43
2022/01/27 00:42:53;;;;;;;;;;;1.30;99.90;;;;;;5094323;28;19922;-45
2022/01/27 00:45:18;;;;;;;;;;;1.00;99.90;;;;;;5094204;28;19949;-46
2022/01/27 00:47:44;;;;;;;;;;;0.90;99.90;;;;;;5094190;28;20003;-44
2022/01/27 00:50:09;;;;;;;;;;;0.80;99.90;;;;;;5094142;28;19923;-46
2022/01/27 00:52:46;;;;;;;;;;;0.70;99.90;;;;;;5093888;28;20354;-45
2022/01/27 00:55:13;;;;;;;;;;;0.70;99.90;;;;;;5093924;28;19911;-43
2022/01/27 01:00:05;;;;;;;;;;;0.50;99.90;;;;;;5094059;28;20278;-46
2022/01/27 01:05:30;;;;;;;;;;;0.50;99.90;;;;;;5094141;28;19923;-44
2022/01/27 01:08:02;;;;;;;;;;;0.50;99.90;;;;;;5094065;28;19915;-45
2022/01/27 01:15:24;;;;;;;;;;;0.50;99.90;;;;;;5094009;28;19915;-45
2022/01/27 01:18:44;;;;;;;;;;;0.50;99.90;;;;;;5094044;28;19912;-43
2022/01/27 01:20:52;;;;;;;;;;;0.50;99.90;;;;;;5086100;28;20338;-45
2022/01/27 01:31:55;;;;;;;;;;;0.80;99.90;;;;;;5093690;28;20353;-48
2022/01/27 01:34:22;;;;;;;;;;;0.80;99.90;;;;;;5093053;28;19919;-46
2022/01/27 01:36:55;;;;;;;;;;;0.80;99.90;;;;;;5078876;28;19910;-46
2022/01/27 01:39:22;;;;;;;;;;;0.80;99.90;;;;;;5098164;28;20238;-47
2022/01/27 01:41:48;;;;;;;;;;;0.90;99.90;;;;;;5097599;28;19911;-46
2022/01/27 01:44:13;;;;;;;;;;;0.80;99.90;;;;;;5097364;28;19908;-44
2022/01/27 01:46:39;;;;;;;;;;;0.60;99.90;;;;;;5097199;28;19959;-43
2022/01/27 01:49:05;;;;;;;;;;;0.50;99.90;;;;;;5097501;28;19987;-46
2022/01/27 01:51:32;;;;;;;;;;;0.50;99.90;;;;;;5097492;28;20018;-48
2022/01/27 01:53:58;;;;;;;;;;;0.40;99.90;;;;;;5097068;28;19904;-44
2022/01/27 01:56:24;;;;;;;;;;;0.50;99.90;;;;;;5097306;28;19919;-47
2022/01/27 01:58:50;;;;;;;;;;;0.50;99.90;;;;;;5097370;28;19904;-45
2022/01/27 02:01:16;;;;;;;;;;;0.50;99.90;;;;;;5097264;28;19966;-45
2022/01/27 02:03:42;;;;;;;;;;;0.50;99.90;;;;;;5096892;28;19927;-43
2022/01/27 02:06:16;;;;;;;;;;;0.70;99.90;;;;;;5097131;28;20336;-45
2022/01/27 02:09:01;;;;;;;;;;;0.70;99.90;;;;;;5097180;28;20038;-44
2022/01/27 02:19:39;;;;;;;;;;;0.60;99.90;;;;;;5096708;28;19911;-42
2022/01/27 02:22:05;;;;;;;;;;;0.50;99.90;;;;;;5096773;28;19904;-43
2022/01/27 02:24:32;;;;;;;;;;;0.50;99.90;;;;;;5096539;28;20334;-43
2022/01/27 02:26:59;;;;;;;;;;;0.50;99.90;;;;;;5096729;28;20003;-44
2022/01/27 02:29:25;;;;;;;;;;;0.60;99.90;;;;;;5078581;28;19911;-43
2022/01/27 02:31:51;;;;;;;;;;;0.50;99.90;;;;;;5096631;28;20258;-44
2022/01/27 02:34:17;;;;;;;;;;;0.50;99.90;;;;;;5096181;28;19908;-46
2022/01/27 02:36:43;;;;;;;;;;;0.60;99.90;;;;;;5096576;28;19915;-43
2022/01/27 02:39:09;;;;;;;;;;;0.40;99.90;;;;;;5096592;28;19910;-46
2022/01/27 02:41:36;;;;;;;;;;;0.40;99.90;;;;;;5096125;28;19911;-44
2022/01/27 02:44:02;;;;;;;;;;;0.40;99.90;;;;;;5096121;28;19908;-44
2022/01/27 02:46:36;;;;;;;;;;;0.30;99.90;;;;;;5096101;28;20261;-46
2022/01/27 02:49:02;;;;;;;;;;;0.30;99.90;;;;;;5095539;28;19911;-45
2022/01/27 02:51:28;;;;;;;;;;;0.30;99.90;;;;;;5096318;28;20006;-46
2022/01/27 02:53:55;;;;;;;;;;;0.40;99.90;;;;;;5095943;28;19908;-46
2022/01/27 02:56:21;;;;;;;;;;;0.30;99.90;;;;;;5095908;28;20342;-44
2022/01/27 02:58:46;;;;;;;;;;;0.30;99.90;;;;;;5096160;28;19954;-45
2022/01/27 03:01:17;;;;;;;;;;;0.30;99.90;;;;;;5096057;28;19904;-44
2022/01/27 03:03:42;;;;;;;;;;;0.30;99.90;;;;;;5095776;28;19908;-42
2022/01/27 03:06:08;;;;;;;;;;;0.10;99.90;;;;;;5095593;28;19919;-43
2022/01/27 03:08:33;;;;;;;;;;;0.10;99.90;;;;;;5095618;28;20353;-43
2022/01/27 03:11:02;;;;;;;;;;;0.00;99.90;;;;;;5095843;28;19904;-43
2022/01/27 03:13:30;;;;;;;;;;;0.00;99.90;;;;;;5095861;28;19951;-44
2022/01/27 03:15:55;;;;;;;;;;;0.00;99.90;;;;;;5095891;28;19911;-42
2022/01/27 03:18:21;;;;;;;;;;;0.20;99.90;;;;;;5095450;28;20346;-44
2022/01/27 03:20:46;;;;;;;;;;;0.30;99.90;;;;;;5095646;28;19911;-43
2022/01/27 03:23:12;;;;;;;;;;;0.40;99.90;;;;;;5095648;28;19947;-45
2022/01/27 03:25:38;;;;;;;;;;;0.40;99.90;;;;;;5077343;28;19922;-46
2022/01/27 03:28:04;;;;;;;;;;;0.40;99.90;;;;;;5095482;28;19912;-45
2022/01/27 03:30:30;;;;;;;;;;;0.40;99.90;;;;;;5095523;28;19908;-46
2022/01/27 03:32:55;;;;;;;;;;;0.50;99.90;;;;;;5095451;28;19904;-44
2022/01/27 03:35:21;;;;;;;;;;;0.40;99.90;;;;;;5095378;28;19904;-44
2022/01/27 03:37:46;;;;;;;;;;;0.40;99.90;;;;;;5095307;28;20334;-47
2022/01/27 03:40:12;;;;;;;;;;;0.40;99.90;;;;;;5094956;28;19911;-45
2022/01/27 03:42:50;;;;;;;;;;;0.30;99.90;;;;;;5095153;28;19950;-44
2022/01/27 03:45:16;;;;;;;;;;;0.30;99.90;;;;;;5094924;28;19952;-45
2022/01/27 03:47:41;;;;;;;;;;;0.40;99.90;;;;;;5094996;28;19916;-42
2022/01/27 03:50:07;;;;;;;;;;;0.50;99.90;;;;;;5094667;28;20037;-46
2022/01/27 03:52:33;;;;;;;;;;;0.50;99.90;;;;;;5095000;28;19915;-48
2022/01/27 03:54:58;;;;;;;;;;;0.50;99.90;;;;;;5095023;28;19944;-43
2022/01/27 03:57:24;;;;;;;;;;;0.40;99.90;;;;;;5095277;28;19904;-46
2022/01/27 03:59:49;;;;;;;;;;;0.30;99.90;;;;;;5094468;28;20254;-45
2022/01/27 04:02:16;;;;;;;;;;;0.40;99.90;;;;;;5094733;28;19911;-44
2022/01/27 04:04:42;;;;;;;;;;;0.40;99.90;;;;;;5099198;28;20384;-42
2022/01/27 04:07:07;;;;;;;;;;;0.30;99.90;;;;;;5084975;28;20011;-45
2022/01/27 04:09:33;;;;;;;;;;;0.30;99.90;;;;;;5114614;28;20304;-44
2022/01/27 04:11:58;;;;;;;;;;;0.30;99.90;;;;;;5114895;28;19907;-44
2022/01/27 04:14:24;;;;;;;;;;;0.20;99.90;;;;;;5114858;28;19915;-45
2022/01/27 04:16:49;;;;;;;;;;;0.20;99.90;;;;;;5113437;28;19907;-44
2022/01/27 04:19:15;;;;;;;;;;;0.20;99.90;;;;;;5105210;28;19915;-45
2022/01/27 04:21:40;;;;;;;;;;;0.20;99.90;;;;;;5094188;28;19908;-46
2022/01/27 04:24:06;;;;;;;;;;;0.10;99.90;;;;;;5105847;28;19927;-45
2022/01/27 04:26:42;;;;;;;;;;;0.10;99.90;;;;;;5114593;28;19926;-45
2022/01/27 04:29:10;;;;;;;;;;;0.20;99.90;;;;;;5113841;28;20215;-49
2022/01/27 04:31:38;;;;;;;;;;;0.10;99.90;;;;;;5114537;28;19912;-44
2022/01/27 04:34:04;;;;;;;;;;;0.10;99.90;;;;;;5114432;28;19908;-45
2022/01/27 04:36:31;;;;;;;;;;;0.30;99.90;;;;;;5103857;28;19918;-46
2022/01/27 04:39:09;;;;;;;;;;;0.20;99.90;;;;;;5093013;28;19908;-46
2022/01/27 04:41:43;;;;;;;;;;;0.10;99.90;;;;;;5095073;28;19951;-44
2022/01/27 04:44:23;;;;;;;;;;;0.00;99.90;;;;;;5093765;28;19908;-44
2022/01/27 04:49:14;;;;;;;;;;;0.00;99.90;;;;;;5093210;28;20299;-45
2022/01/27 04:51:40;;;;;;;;;;;-0.10;99.90;;;;;;5093455;28;19908;-47
2022/01/27 04:54:13;;;;;;;;;;;0.00;99.90;;;;;;5095046;28;19916;-45
2022/01/27 04:56:40;;;;;;;;;;;0.00;99.90;;;;;;5112070;28;20002;-43
2022/01/27 04:59:27;;;;;;;;;;;0.10;99.90;;;;;;5112513;28;19993;-44
2022/01/27 05:02:04;;;;;;;;;;;0.10;99.90;;;;;;5112245;28;20644;-44
2022/01/27 05:04:33;;;;;;;;;;;0.10;99.90;;;;;;5094258;28;19907;-48
2022/01/27 05:06:59;;;;;;;;;;;0.00;99.90;;;;;;5112655;28;19958;-45
2022/01/27 05:09:25;;;;;;;;;;;0.10;99.90;;;;;;5111957;28;19943;-43
2022/01/27 05:11:55;;;;;;;;;;;0.10;99.90;;;;;;5115120;28;19958;-45
2022/01/27 05:14:25;;;;;;;;;;;0.10;99.90;;;;;;5116272;28;19904;-47
2022/01/27 05:16:51;;;;;;;;;;;0.10;99.90;;;;;;5115841;28;20177;-46
2022/01/27 05:19:17;;;;;;;;;;;0.20;99.90;;;;;;5116248;28;19908;-46
2022/01/27 05:21:42;;;;;;;;;;;0.00;99.90;;;;;;5116724;28;19904;-45
2022/01/27 05:24:08;;;;;;;;;;;0.00;99.90;;;;;;5117464;28;19922;-47
2022/01/27 05:26:34;;;;;;;;;;;-0.10;99.90;;;;;;5117611;28;19914;-44
2022/01/27 05:29:00;;;;;;;;;;;-0.10;99.90;;;;;;5117872;28;19907;-43
2022/01/27 05:31:25;;;;;;;;;;;0.00;99.90;;;;;;5117789;28;19903;-46
2022/01/27 05:33:51;;;;;;;;;;;0.30;99.90;;;;;;5117565;28;19904;-46
2022/01/27 05:36:16;;;;;;;;;;;0.20;99.90;;;;;;5117880;28;19914;-46
2022/01/27 05:38:42;;;;;;;;;;;0.30;99.90;;;;;;5117512;28;19904;-46
2022/01/27 05:41:07;;;;;;;;;;;0.20;99.90;;;;;;5117742;28;19910;-46
2022/01/27 05:43:33;;;;;;;;;;;0.20;99.90;;;;;;5117285;28;19907;-45
2022/01/27 05:45:59;;;;;;;;;;;0.10;99.90;;;;;;5117482;28;19904;-47
2022/01/27 05:48:24;;;;;;;;;;;0.20;99.90;;;;;;5117576;28;19919;-44
2022/01/27 05:50:50;;;;;;;;;;;0.20;99.90;;;;;;5117525;28;19904;-47
2022/01/27 05:53:16;;;;;;;;;;;0.10;99.90;;;;;;5117087;28;19904;-46
2022/01/27 05:55:41;;;;;;;;;;;0.10;99.90;;;;;;5117434;28;19911;-46
2022/01/27 05:58:07;;;;;;;;;;;0.20;99.90;;;;;;5116934;28;19915;-44
2022/01/27 06:00:32;;;;;;;;;;;0.20;99.90;;;;;;5116880;28;19910;-44
2022/01/27 06:02:58;;;;;;;;;;;0.00;99.90;;;;;;5116881;28;19927;-44
2022/01/27 06:05:24;;;;;;;;;;;-0.10;99.90;;;;;;5117321;28;19904;-46
2022/01/27 06:07:49;;;;;;;;;;;-0.10;99.90;;;;;;5116636;28;19907;-44
2022/01/27 06:10:15;;;;;;;;;;;0.00;99.90;;;;;;5116529;28;19990;-46
2022/01/27 06:12:54;;;;;;;;;;;0.00;99.90;;;;;;5090159;28;20090;-46
2022/01/27 06:15:20;;;;;;;;;;;0.00;99.90;;;;;;5096235;28;20007;-44
2022/01/27 06:17:46;;;;;;;;;;;-0.10;99.90;;;;;;5096321;28;20006;-45
2022/01/27 06:20:12;;;;;;;;;;;-0.10;99.90;;;;;;5097145;28;20389;-46
2022/01/27 06:22:37;;;;;;;;;;;-0.20;99.90;;;;;;5103445;28;19912;-44
2022/01/27 06:25:03;;;;;;;;;;;-0.20;99.90;;;;;;5113032;28;20006;-43
2022/01/27 06:27:29;;;;;;;;;;;-0.20;99.90;;;;;;5109210;28;19955;-44
2022/01/27 06:29:54;;;;;;;;;;;-0.30;99.90;;;;;;5099642;28;19947;-43
2022/01/27 06:32:20;;;;;;;;;;;-0.30;99.90;;;;;;5116263;28;20006;-45
2022/01/27 06:34:46;;;;;;;;;;;-0.20;99.90;;;;;;5108422;28;19943;-43
2022/01/27 06:37:12;;;;;;;;;;;-0.10;99.90;;;;;;5077632;28;20015;-43
2022/01/27 06:39:38;;;;;;;;;;;-0.10;99.90;;;;;;5095629;28;20375;-44
2022/01/27 06:42:05;;;;;;;;;;;-0.10;99.90;;;;;;5100746;28;20379;-45
2022/01/27 06:44:30;;;;;;;;;;;-0.20;99.90;;;;;;5102421;28;19912;-44
2022/01/27 06:46:56;;;;;;;;;;;-0.20;99.90;;;;;;5094798;28;20376;-43
2022/01/27 06:49:21;;;;;;;;;;;-0.30;99.90;;;;;;5095045;28;19946;-47
2022/01/27 06:51:47;;;;;;;;;;;-0.30;99.90;;;;;;5094972;28;19912;-44
2022/01/27 06:54:13;;;;;;;;;;;-0.30;99.90;;;;;;5094827;28;19912;-44
2022/01/27 06:56:39;;;;;;;;;;;-0.20;99.90;;;;;;5094519;28;19939;-44
2022/01/27 06:59:05;;;;;;;;;;;-0.20;99.90;;;;;;5076412;28;19912;-44
2022/01/27 07:01:30;;;;;;;;;;;-0.20;99.90;;;;;;5095105;28;20312;-44
2022/01/27 07:03:56;;;;;;;;;;;-0.20;99.90;;;;;;5094924;28;19908;-43
2022/01/27 07:06:21;;;;;;;;;;;0.00;99.90;;;;;;5094938;28;19919;-45
2022/01/27 07:08:47;;;;;;;;;;;0.00;99.90;;;;;;5094753;28;19912;-45
2022/01/27 07:11:13;;;;;;;;;;;0.00;99.90;;;;;;5077098;28;19931;-45
2022/01/27 07:13:40;;;;;;;;;;;-0.10;99.90;;;;;;5095058;28;19966;-44
2022/01/27 07:16:08;;;;;;;;;;;-0.10;99.90;;;;;;5095025;28;19915;-44
2022/01/27 07:18:34;;;;;;;;;;;0.10;99.90;;;;;;5094943;28;19909;-45
2022/01/27 07:21:00;;;;;;;;;;;0.10;99.90;;;;;;5076799;28;19915;-44
2022/01/27 07:23:26;;;;;;;;;;;0.10;99.90;;;;;;5094877;28;19931;-44
2022/01/27 07:25:51;;;;;;;;;;;0.10;99.90;;;;;;5094223;28;20358;-43
2022/01/27 07:28:17;;;;;;;;;;;0.00;99.90;;;;;;5094902;28;20350;-43
2022/01/27 07:30:42;;;;;;;;;;;0.10;99.90;;;;;;5094681;28;20029;-45
2022/01/27 07:33:08;;;;;;;;;;;0.30;99.90;;;;;;5094217;28;19908;-44
2022/01/27 07:35:33;;;;;;;;;;;0.30;99.90;;;;;;5094366;28;19912;-44
2022/01/27 07:37:59;;;;;;;;;;;0.30;99.90;;;;;;5094713;28;19908;-43
2022/01/27 07:40:24;;;;;;;;;;;0.40;99.90;;;;;;5094298;28;19912;-43
2022/01/27 07:42:50;;;;;;;;;;;0.50;99.90;;;;;;5094666;28;20331;-43
2022/01/27 07:45:15;;;;;;;;;;;0.50;99.90;;;;;;5093678;28;19938;-45
2022/01/27 07:47:41;;;;;;;;;;;0.60;99.90;;;;;;5093880;28;19916;-46
2022/01/27 07:50:07;;;;;;;;;;;0.60;99.90;;;;;;5094108;28;19912;-48
2022/01/27 07:52:33;;;;;;;;;;;0.60;99.90;;;;;;5094142;28;19915;-46
2022/01/27 07:54:58;;;;;;;;;;;0.80;99.90;;;;;;5094016;28;19908;-44
2022/01/27 07:57:24;;;;;;;;;;;0.90;99.90;;;;;;5093810;28;19908;-45
2022/01/27 07:59:49;;;;;;;;;;;1.10;99.90;;;;;;5093619;28;20013;-47
2022/01/27 08:02:15;;;;;;;;;;;1.40;99.90;;;;;;5094175;28;19908;-45
2022/01/27 08:04:41;;;;;;;;;;;1.50;99.90;;;;;;5093544;28;19908;-44
2022/01/27 08:07:08;;;;;;;;;;;1.60;99.90;;;;;;5093517;28;19956;-45
2022/01/27 08:09:33;;;;;;;;;;;1.80;99.90;;;;;;5094062;28;19919;-43
2022/01/27 08:11:59;;;;;;;;;;;1.90;99.90;;;;;;5093972;28;19912;-43
2022/01/27 08:14:24;;;;;;;;;;;1.90;99.90;;;;;;5093996;28;19908;-45
2022/01/27 08:16:50;;;;;;;;;;;2.00;99.90;;;;;;5093729;28;19977;-44
2022/01/27 08:19:15;;;;;;;;;;;2.30;99.90;;;;;;5093641;28;20045;-47
2022/01/27 08:21:41;;;;;;;;;;;2.50;99.90;;;;;;5093154;28;20273;-45
2022/01/27 08:24:06;;;;;;;;;;;2.70;99.90;;;;;;5093423;28;19927;-45
2022/01/27 08:26:59;;;;;;;;;;;2.80;99.90;;;;;;5093807;28;20346;-43
2022/01/27 08:29:22;;;;;;;;;;;2.80;99.90;;;;;;5093019;28;19947;-47
2022/01/27 08:34:35;;;;;;;;;;;2.80;99.90;;;;;;5093658;28;19919;-48
2022/01/27 08:37:03;;;;;;;;;;;2.80;99.90;;;;;;5093421;28;20360;-44
2022/01/27 08:39:28;;;;;;;;;;;2.70;99.90;;;;;;5075549;28;19908;-44
2022/01/27 08:41:54;;;;;;;;;;;3.00;99.90;;;;;;5093498;28;19931;-42
2022/01/27 08:44:19;;;;;;;;;;;3.20;99.90;;;;;;5093782;28;19912;-45
2022/01/27 08:46:45;;;;;;;;;;;3.30;99.90;;;;;;5074693;28;19997;-45
2022/01/27 08:49:10;;;;;;;;;;;3.30;99.90;;;;;;5093481;28;19912;-47
2022/01/27 08:51:36;;;;;;;;;;;3.70;99.90;;;;;;5093240;28;19909;-49
2022/01/27 08:54:02;;;;;;;;;;;3.60;99.90;;;;;;5093090;28;19953;-43
2022/01/27 08:56:27;;;;;;;;;;;3.50;99.90;;;;;;5093321;28;19908;-47
2022/01/27 08:58:56;;;;;;;;;;;3.50;99.90;;;;;;5092682;28;19912;-44
2022/01/27 09:01:23;;;;;;;;;;;3.60;99.90;;;;;;5093287;28;19999;-46
2022/01/27 09:03:49;;;;;;;;;;;3.80;99.90;;;;;;5092883;28;19908;-49
2022/01/27 09:06:15;;;;;;;;;;;3.90;99.90;;;;;;5074948;28;19977;-44
2022/01/27 09:08:41;;;;;;;;;;;4.00;99.90;;;;;;5093422;28;20331;-48
2022/01/27 09:11:06;;;;;;;;;;;4.20;99.90;;;;;;5093193;28;19931;-44
2022/01/27 09:13:32;;;;;;;;;;;4.30;99.90;;;;;;5092847;28;19939;-45
2022/01/27 09:16:00;;;;;;;;;;;4.40;99.90;;;;;;5075153;28;19946;-45
2022/01/27 09:18:26;;;;;;;;;;;4.50;99.90;;;;;;5092853;28;19931;-45
2022/01/27 09:20:51;;;;;;;;;;;4.50;99.90;;;;;;5075164;28;20358;-47
2022/01/27 09:23:17;;;;;;;;;;;4.70;99.90;;;;;;5093095;28;20274;-44
2022/01/27 09:25:46;;;;;;;;;;;4.70;99.90;;;;;;5093397;28;19924;-47
2022/01/27 09:28:12;;;;;;;;;;;4.80;99.90;;;;;;5093041;28;19918;-45
2022/01/27 09:30:38;;;;;;;;;;;5.00;99.90;;;;;;5093183;28;19912;-46
2022/01/27 09:33:03;;;;;;;;;;;5.00;99.90;;;;;;5093546;28;20400;-47
2022/01/27 09:35:30;;;;;;;;;;;5.00;99.90;;;;;;5093422;28;19914;-45
2022/01/27 09:37:56;;;;;;;;;;;5.10;99.90;;;;;;5092862;28;19909;-43
2022/01/27 09:40:22;;;;;;;;;;;5.20;99.90;;;;;;5093296;28;19954;-48
2022/01/27 09:42:51;;;;;;;;;;;5.30;99.90;;;;;;5093044;28;20002;-46
2022/01/27 09:45:17;;;;;;;;;;;5.30;99.90;;;;;;5092775;28;19980;-46
2022/01/27 09:47:43;;;;;;;;;;;5.40;99.90;;;;;;5092844;28;19912;-46
2022/01/27 09:52:41;;;;;;;;;;;5.90;99.90;;;;;;5092912;28;20014;-44
2022/01/27 09:55:07;;;;;;;;;;;6.00;99.90;;;;;;5092580;28;20344;-45
2022/01/27 09:57:33;;;;;;;;;;;6.30;99.90;;;;;;5095829;28;19908;-44
2022/01/27 09:59:58;;;;;;;;;;;6.50;99.90;;;;;;5096369;28;20064;-46
2022/01/27 10:02:26;;;;;;;;;;;6.60;99.90;;;;;;5096803;28;19955;-45
2022/01/27 10:04:53;;;;;;;;;;;6.50;99.90;;;;;;5096645;28;20006;-46
2022/01/27 10:07:20;;;;;;;;;;;6.60;99.90;;;;;;5096681;28;19957;-44
2022/01/27 10:09:56;;;;;;;;;;;6.80;99.90;;;;;;5096503;28;19912;-48
2022/01/27 10:12:30;;;;;;;;;;;6.90;99.90;;;;;;5096530;28;19908;-45
2022/01/27 10:15:00;;;;;;;;;;;7.00;99.30;;;;;;5096278;28;20362;-48
2022/01/27 10:17:25;;;;;;;;;;;7.00;98.80;;;;;;5096342;28;19962;-44
2022/01/27 10:19:54;;;;;;;;;;;7.10;99.60;;;;;;5077736;28;19908;-45
2022/01/27 10:22:20;;;;;;;;;;;7.30;98.50;;;;;;5095963;28;19908;-45
2022/01/27 10:24:46;;;;;;;;;;;7.30;98.50;;;;;;5095662;28;20027;-45
2022/01/27 10:27:23;;;;;;;;;;;7.40;98.10;;;;;;5078007;28;19913;-47
2022/01/27 10:30:05;;;;;;;;;;;7.60;98.20;;;;;;5096076;28;19916;-44
2022/01/27 10:32:36;;;;;;;;;;;7.60;97.70;;;;;;5077992;28;19970;-48
2022/01/27 10:35:04;;;;;;;;;;;7.70;97.90;;;;;;5096180;28;20007;-46
2022/01/27 10:37:49;;;;;;;;;;;7.80;98.20;;;;;;5095959;28;19915;-44
2022/01/27 10:40:22;;;;;;;;;;;8.10;98.10;;;;;;5095401;28;19908;-47
2022/01/27 10:42:57;;;;;;;;;;;8.30;97.40;;;;;;5095968;28;19933;-45
2022/01/27 10:45:23;;;;;;;;;;;8.20;96.90;;;;;;5095688;28;20078;-46
2022/01/27 10:47:48;;;;;;;;;;;8.10;96.20;;;;;;5095531;28;19959;-43
2022/01/27 10:50:16;;;;;;;;;;;8.30;97.30;;;;;;5077451;28;20270;-47
2022/01/27 10:52:52;;;;;;;;;;;8.40;96.60;;;;;;5095261;28;20289;-46
2022/01/27 10:55:19;;;;;;;;;;;8.60;95.70;;;;;;5077540;28;19908;-46
2022/01/27 10:57:50;;;;;;;;;;;8.60;96.50;;;;;;5095257;28;19953;-49
2022/01/27 11:00:17;;;;;;;;;;;8.80;95.70;;;;;;5094851;28;19915;-45
2022/01/27 11:02:57;;;;;;;;;;;8.80;94.60;;;;;;5095316;28;20274;-46
2022/01/27 11:05:24;;;;;;;;;;;8.70;95.20;;;;;;5095114;28;19977;-43
2022/01/27 11:07:49;;;;;;;;;;;8.70;93.50;;;;;;5094532;28;19912;-45
2022/01/27 11:10:15;;;;;;;;;;;8.70;94.40;;;;;;5094920;28;19918;-45
2022/01/27 11:12:42;;;;;;;;;;;8.90;95.00;;;;;;5095143;28;19934;-45
2022/01/27 11:15:10;;;;;;;;;;;9.00;93.40;;;;;;5095299;28;19918;-44
2022/01/27 11:17:37;;;;;;;;;;;9.10;93.70;;;;;;5095212;28;19961;-46
2022/01/27 11:20:51;;;;;;;;;;;9.00;94.20;;;;;;5095009;28;19909;-45
2022/01/27 11:28:00;;;;;;;;;;;8.90;91.90;;;;;;5094731;28;19912;-46
2022/01/27 11:31:02;;;;;;;;;;;8.90;92.70;;;;;;5094712;28;20297;-45
2022/01/27 11:33:31;;;;;;;;;;;8.90;92.00;;;;;;4992659;28;19910;-46
2022/01/27 11:36:10;;;;;;;;;;;9.00;91.60;;;;;;5076520;28;20276;-44
2022/01/27 11:38:37;;;;;;;;;;;9.00;92.30;;;;;;5094387;28;19915;-48
2022/01/27 11:41:02;;;;;;;;;;;9.00;91.50;;;;;;5094657;28;19908;-47
2022/01/27 11:43:34;;;;;;;;;;;9.00;92.40;;;;;;5094472;28;19908;-45
2022/01/27 11:46:13;;;;;;;;;;;9.10;92.20;;;;;;5094580;28;19979;-45
2022/01/27 11:48:39;;;;;;;;;;;9.10;91.00;;;;;;5094619;28;19916;-45
2022/01/27 11:51:06;;;;;;;;;;;9.10;91.10;;;;;;5094331;28;19908;-44
2022/01/27 11:53:40;;;;;;;;;;;9.10;92.80;;;;;;5076459;28;19934;-46
2022/01/27 11:56:07;;;;;;;;;;;9.00;90.90;;;;;;5076334;28;19947;-44
2022/01/27 11:58:43;;;;;;;;;;;8.90;91.10;;;;;;5094336;28;20270;-47
2022/01/27 12:01:14;;;;;;;;;;;9.00;90.20;;;;;;5094379;28;19969;-46
2022/01/27 12:03:40;;;;;;;;;;;9.00;90.60;;;;;;5093978;28;20274;-46
2022/01/27 12:06:20;;;;;;;;;;;9.20;90.90;;;;;;5094096;28;19943;-46
2022/01/27 12:08:46;;;;;;;;;;;9.00;90.20;;;;;;5093832;28;20274;-45
2022/01/27 12:11:30;;;;;;;;;;;8.90;89.40;;;;;;5093852;28;19915;-44
2022/01/27 12:13:57;;;;;;;;;;;8.90;90.40;;;;;;5093868;28;20259;-45
2022/01/27 12:16:38;;;;;;;;;;;8.80;91.00;;;;;;5094095;28;19956;-48
2022/01/27 12:19:04;;;;;;;;;;;9.00;90.90;;;;;;5093576;28;19935;-47
2022/01/27 12:21:46;;;;;;;;;;;9.00;91.10;;;;;;5093048;28;20246;-46
2022/01/27 12:26:53;;;;;;;;;;;8.90;90.40;;;;;;5093657;28;19912;-44
2022/01/27 12:29:28;;;;;;;;;;;8.90;90.00;;;;;;5093415;28;20007;-45
2022/01/27 12:31:55;;;;;;;;;;;8.80;90.40;;;;;;5093077;28;20007;-46
2022/01/27 12:34:21;;;;;;;;;;;8.90;91.80;;;;;;5093188;28;19931;-47
2022/01/27 12:37:01;;;;;;;;;;;8.70;90.30;;;;;;5093368;28;19908;-44
2022/01/27 12:39:29;;;;;;;;;;;8.80;91.40;;;;;;5093530;28;19908;-46
2022/01/27 12:41:55;;;;;;;;;;;9.00;92.20;;;;;;5093132;28;19944;-46
2022/01/27 12:44:21;;;;;;;;;;;8.60;92.20;;;;;;5093305;28;19915;-45
2022/01/27 12:47:06;;;;;;;;;;;8.50;93.30;;;;;;5093305;28;19912;-44
2022/01/27 12:49:40;;;;;;;;;;;8.30;92.50;;;;;;5074811;28;19957;-45
2022/01/27 12:52:09;;;;;;;;;;;8.20;92.50;;;;;;5093473;28;19915;-47
2022/01/27 12:54:35;;;;;;;;;;;8.00;92.80;;;;;;5093531;28;19912;-46
2022/01/27 12:57:01;;;;;;;;;;;8.30;93.20;;;;;;5074697;28;19915;-45
2022/01/27 12:59:30;;;;;;;;;;;8.20;92.20;;;;;;5093336;28;19908;-47
2022/01/27 13:01:59;;;;;;;;;;;8.20;92.00;;;;;;5092936;28;19994;-46
2022/01/27 13:04:25;;;;;;;;;;;8.00;92.30;;;;;;5093391;28;19997;-45
2022/01/27 13:06:55;;;;;;;;;;;8.00;93.50;;;;;;5093254;28;19974;-46
2022/01/27 13:09:20;;;;;;;;;;;8.20;94.40;;;;;;5093716;28;20007;-43
2022/01/27 13:11:48;;;;;;;;;;;8.10;95.90;;;;;;5093039;28;19915;-46
2022/01/27 13:14:14;;;;;;;;;;;7.50;96.40;;;;;;5092822;28;19912;-45
2022/01/27 13:16:46;;;;;;;;;;;7.50;97.40;;;;;;5093058;28;20422;-45
2022/01/27 13:19:29;;;;;;;;;;;7.30;98.30;;;;;;5093313;28;19908;-44
2022/01/27 13:22:02;;;;;;;;;;;7.00;98.90;;;;;;5093215;28;19908;-45
2022/01/27 13:24:30;;;;;;;;;;;7.10;99.20;;;;;;5092778;28;20274;-47
2022/01/27 13:27:03;;;;;;;;;;;6.90;99.30;;;;;;5092898;28;19916;-46
2022/01/27 13:29:29;;;;;;;;;;;6.90;99.90;;;;;;5093440;28;19981;-45
2022/01/27 13:31:56;;;;;;;;;;;6.90;99.90;;;;;;5094642;28;19947;-46
2022/01/27 13:34:22;;;;;;;;;;;6.70;99.60;;;;;;5097414;28;20258;-44
2022/01/27 13:37:01;;;;;;;;;;;6.50;99.90;;;;;;5096650;28;19908;-45
2022/01/27 13:41:52;;;;;;;;;;;6.40;99.90;;;;;;5096653;28;19908;-46
2022/01/27 13:44:19;;;;;;;;;;;6.10;99.90;;;;;;5097032;28;20011;-45
2022/01/27 13:46:46;;;;;;;;;;;6.00;99.90;;;;;;5096495;28;19912;-45
2022/01/27 13:49:13;;;;;;;;;;;6.10;99.90;;;;;;5096646;28;19912;-46
2022/01/27 13:51:45;;;;;;;;;;;5.80;99.90;;;;;;5078609;28;19908;-47
2022/01/27 13:54:11;;;;;;;;;;;6.00;99.90;;;;;;5096854;28;19994;-45
2022/01/27 13:56:41;;;;;;;;;;;6.00;99.90;;;;;;5096550;28;19997;-45
2022/01/27 13:59:18;;;;;;;;;;;5.90;99.90;;;;;;5096613;28;19974;-46
2022/01/27 14:01:45;;;;;;;;;;;5.80;99.90;;;;;;5096632;28;19919;-48
2022/01/27 14:04:10;;;;;;;;;;;6.00;99.90;;;;;;5096311;28;19908;-46
2022/01/27 14:06:49;;;;;;;;;;;5.90;99.90;;;;;;5096307;28;20050;-46
2022/01/27 14:09:19;;;;;;;;;;;5.60;99.90;;;;;;5097647;28;20237;-48
2022/01/27 14:11:44;;;;;;;;;;;5.20;99.90;;;;;;5101306;28;19923;-45
2022/01/27 14:14:10;;;;;;;;;;;5.40;99.90;;;;;;5116083;28;19916;-44
2022/01/27 14:16:36;;;;;;;;;;;5.40;99.90;;;;;;5114159;28;19995;-45
2022/01/27 14:19:12;;;;;;;;;;;5.60;99.90;;;;;;5103182;28;19912;-46
2022/01/27 14:21:44;;;;;;;;;;;5.70;99.90;;;;;;5111146;28;19953;-44
2022/01/27 14:24:14;;;;;;;;;;;5.40;99.90;;;;;;5095564;28;20010;-46
2022/01/27 14:26:41;;;;;;;;;;;5.40;99.90;;;;;;5097598;28;19916;-47
2022/01/27 14:29:11;;;;;;;;;;;5.30;99.90;;;;;;5099987;28;19916;-51
2022/01/27 14:31:37;;;;;;;;;;;5.40;99.90;;;;;;5116055;28;19907;-45
2022/01/27 14:34:06;;;;;;;;;;;5.10;99.90;;;;;;5105063;28;19965;-46
2022/01/27 14:36:33;;;;;;;;;;;5.10;99.90;;;;;;5095511;28;19966;-45
2022/01/27 14:38:58;;;;;;;;;;;4.90;99.90;;;;;;5094903;28;19912;-45
2022/01/27 14:41:24;;;;;;;;;;;5.00;99.90;;;;;;5095578;28;19908;-45
2022/01/27 14:43:49;;;;;;;;;;;4.90;99.90;;;;;;5094679;28;20350;-44
2022/01/27 14:46:21;;;;;;;;;;;4.70;99.90;;;;;;5095507;28;19908;-44
2022/01/27 14:48:53;;;;;;;;;;;4.60;99.90;;;;;;5077036;28;20013;-47
2022/01/27 14:51:20;;;;;;;;;;;4.40;99.90;;;;;;5095547;28;19908;-48
2022/01/27 14:53:46;;;;;;;;;;;4.30;99.90;;;;;;5095761;28;19908;-45
2022/01/27 14:56:11;;;;;;;;;;;4.50;99.90;;;;;;5095412;28;19908;-46
2022/01/27 14:58:37;;;;;;;;;;;4.50;99.90;;;;;;5095684;28;19908;-45
2022/01/27 15:01:03;;;;;;;;;;;4.50;99.90;;;;;;5095274;28;19908;-43
2022/01/27 15:03:28;;;;;;;;;;;4.30;99.90;;;;;;5095153;28;20348;-46
2022/01/27 15:05:54;;;;;;;;;;;4.10;99.90;;;;;;5094783;28;20366;-44
2022/01/27 15:08:19;;;;;;;;;;;4.20;99.90;;;;;;5094834;28;19965;-45
2022/01/27 15:10:45;;;;;;;;;;;4.20;99.90;;;;;;5095316;28;19916;-46
2022/01/27 15:13:12;;;;;;;;;;;4.10;99.90;;;;;;5094925;28;19970;-47
2022/01/27 15:21:07;;;;;;;;;;;4.00;99.90;;;;;;5094923;28;20456;-45
2022/01/27 15:23:35;;;;;;;;;;;4.30;99.90;;;;;;5094535;28;19912;-45
2022/01/27 15:26:02;;;;;;;;;;;4.40;99.90;;;;;;5095091;28;19931;-46
2022/01/27 15:28:28;;;;;;;;;;;4.30;99.90;;;;;;5094429;28;19920;-47
2022/01/27 15:30:55;;;;;;;;;;;4.20;99.90;;;;;;5094795;28;19916;-45